sensor_id;sensor_type;location;lat;lon;timestamp;P1;durP1;ratioP1;P2;durP2;ratioP2
71095;SDS011;58753;49.440;11.126;2022-11-20T00:01:05;30.98;;;12.32;;
71095;SDS011;58753;49.440;11.126;2022-11-20T00:03:31;27.05;;;12.98;;
71095;SDS011;58753;49.440;11.126;2022-11-20T00:06:03;27.83;;;14.27;;
71095;SDS011;58753;49.440;11.126;2022-11-20T00:08:30;31.45;;;14.35;;
71095;SDS011;58753;49.440;11.126;2022-11-20T00:10:56;26.67;;;12.70;;
71095;SDS011;58753;49.440;11.126;2022-11-20T00:13:21;31.33;;;13.63;;
71095;SDS011;58753;49.440;11.126;2022-11-20T00:15:47;26.42;;;11.95;;
71095;SDS011;58753;49.440;11.126;2022-11-20T00:18:12;31.43;;;14.53;;
71095;SDS011;58753;49.440;11.126;2022-11-20T00:20:37;28.73;;;12.50;;
71095;SDS011;58753;49.440;11.126;2022-11-20T00:23:03;32.23;;;13.67;;
71095;SDS011;58753;49.440;11.126;2022-11-20T00:25:28;30.90;;;12.50;;
71095;SDS011;58753;49.440;11.126;2022-11-20T00:27:53;28.43;;;13.23;;
71095;SDS011;58753;49.440;11.126;2022-11-20T00:30:19;32.33;;;13.03;;
71095;SDS011;58753;49.440;11.126;2022-11-20T00:32:44;26.07;;;12.97;;
71095;SDS011;58753;49.440;11.126;2022-11-20T00:35:10;32.47;;;14.47;;
71095;SDS011;58753;49.440;11.126;2022-11-20T00:37:35;30.75;;;12.55;;
71095;SDS011;58753;49.440;11.126;2022-11-20T00:40:00;31.00;;;13.27;;
71095;SDS011;58753;49.440;11.126;2022-11-20T00:42:26;29.63;;;13.17;;
71095;SDS011;58753;49.440;11.126;2022-11-20T00:44:51;30.37;;;13.13;;
71095;SDS011;58753;49.440;11.126;2022-11-20T00:47:16;28.60;;;12.63;;
71095;SDS011;58753;49.440;11.126;2022-11-20T00:49:42;34.45;;;13.98;;
71095;SDS011;58753;49.440;11.126;2022-11-20T00:52:07;37.50;;;14.87;;
71095;SDS011;58753;49.440;11.126;2022-11-20T00:54:33;39.90;;;15.63;;
71095;SDS011;58753;49.440;11.126;2022-11-20T00:56:58;33.27;;;13.97;;
71095;SDS011;58753;49.440;11.126;2022-11-20T00:59:23;32.23;;;12.00;;
71095;SDS011;58753;49.440;11.126;2022-11-20T01:01:49;31.27;;;12.80;;
71095;SDS011;58753;49.440;11.126;2022-11-20T01:04:14;28.07;;;12.27;;
71095;SDS011;58753;49.440;11.126;2022-11-20T01:06:39;31.87;;;12.30;;
71095;SDS011;58753;49.440;11.126;2022-11-20T01:09:06;33.53;;;14.13;;
71095;SDS011;58753;49.440;11.126;2022-11-20T01:11:34;32.53;;;13.30;;
71095;SDS011;58753;49.440;11.126;2022-11-20T01:14:02;31.95;;;13.27;;
71095;SDS011;58753;49.440;11.126;2022-11-20T01:16:30;29.63;;;12.52;;
71095;SDS011;58753;49.440;11.126;2022-11-20T01:18:59;25.63;;;11.35;;
71095;SDS011;58753;49.440;11.126;2022-11-20T01:21:26;25.33;;;11.50;;
71095;SDS011;58753;49.440;11.126;2022-11-20T01:24:00;30.10;;;11.57;;
71095;SDS011;58753;49.440;11.126;2022-11-20T01:26:27;30.52;;;12.70;;
71095;SDS011;58753;49.440;11.126;2022-11-20T01:28:54;30.05;;;12.13;;
71095;SDS011;58753;49.440;11.126;2022-11-20T01:31:22;31.02;;;12.35;;
71095;SDS011;58753;49.440;11.126;2022-11-20T01:33:53;31.83;;;13.33;;
71095;SDS011;58753;49.440;11.126;2022-11-20T01:36:20;34.85;;;14.25;;
71095;SDS011;58753;49.440;11.126;2022-11-20T01:38:46;36.10;;;12.70;;
71095;SDS011;58753;49.440;11.126;2022-11-20T01:41:13;29.63;;;12.73;;
71095;SDS011;58753;49.440;11.126;2022-11-20T01:43:58;29.48;;;11.95;;
71095;SDS011;58753;49.440;11.126;2022-11-20T01:46:24;34.47;;;13.77;;
71095;SDS011;58753;49.440;11.126;2022-11-20T01:49:03;28.60;;;12.50;;
71095;SDS011;58753;49.440;11.126;2022-11-20T01:51:35;26.58;;;12.48;;
71095;SDS011;58753;49.440;11.126;2022-11-20T01:54:06;28.27;;;13.23;;
71095;SDS011;58753;49.440;11.126;2022-11-20T01:56:39;30.23;;;12.07;;
71095;SDS011;58753;49.440;11.126;2022-11-20T01:59:08;32.13;;;13.38;;
71095;SDS011;58753;49.440;11.126;2022-11-20T02:01:35;30.55;;;12.48;;
71095;SDS011;58753;49.440;11.126;2022-11-20T02:04:01;29.45;;;12.45;;
71095;SDS011;58753;49.440;11.126;2022-11-20T02:06:28;35.00;;;13.30;;
71095;SDS011;58753;49.440;11.126;2022-11-20T02:08:56;28.60;;;12.48;;
71095;SDS011;58753;49.440;11.126;2022-11-20T02:11:21;30.33;;;12.37;;
71095;SDS011;58753;49.440;11.126;2022-11-20T02:13:47;29.65;;;12.45;;
71095;SDS011;58753;49.440;11.126;2022-11-20T02:16:27;28.30;;;12.10;;
71095;SDS011;58753;49.440;11.126;2022-11-20T02:18:53;34.47;;;13.02;;
71095;SDS011;58753;49.440;11.126;2022-11-20T02:21:34;33.15;;;12.55;;
71095;SDS011;58753;49.440;11.126;2022-11-20T02:24:05;31.67;;;12.98;;
71095;SDS011;58753;49.440;11.126;2022-11-20T02:26:33;33.65;;;13.20;;
71095;SDS011;58753;49.440;11.126;2022-11-20T02:29:02;33.00;;;13.27;;
71095;SDS011;58753;49.440;11.126;2022-11-20T02:31:28;31.15;;;12.77;;
71095;SDS011;58753;49.440;11.126;2022-11-20T02:33:54;29.43;;;12.67;;
71095;SDS011;58753;49.440;11.126;2022-11-20T02:36:21;33.95;;;12.13;;
71095;SDS011;58753;49.440;11.126;2022-11-20T02:38:46;34.25;;;12.85;;
71095;SDS011;58753;49.440;11.126;2022-11-20T02:41:13;33.50;;;13.07;;
71095;SDS011;58753;49.440;11.126;2022-11-20T02:43:39;32.47;;;13.07;;
71095;SDS011;58753;49.440;11.126;2022-11-20T02:46:07;31.07;;;11.83;;
71095;SDS011;58753;49.440;11.126;2022-11-20T02:48:33;36.67;;;13.75;;
71095;SDS011;58753;49.440;11.126;2022-11-20T02:50:58;34.73;;;13.30;;
71095;SDS011;58753;49.440;11.126;2022-11-20T02:53:23;35.03;;;12.33;;
71095;SDS011;58753;49.440;11.126;2022-11-20T02:55:49;28.67;;;12.80;;
71095;SDS011;58753;49.440;11.126;2022-11-20T02:58:14;32.80;;;12.37;;
71095;SDS011;58753;49.440;11.126;2022-11-20T03:00:40;29.87;;;12.67;;
71095;SDS011;58753;49.440;11.126;2022-11-20T03:03:05;29.33;;;12.43;;
71095;SDS011;58753;49.440;11.126;2022-11-20T03:05:30;29.33;;;12.73;;
71095;SDS011;58753;49.440;11.126;2022-11-20T03:07:56;27.63;;;11.90;;
71095;SDS011;58753;49.440;11.126;2022-11-20T03:10:21;31.27;;;12.57;;
71095;SDS011;58753;49.440;11.126;2022-11-20T03:12:46;30.67;;;12.67;;
71095;SDS011;58753;49.440;11.126;2022-11-20T03:15:12;30.83;;;13.32;;
71095;SDS011;58753;49.440;11.126;2022-11-20T03:17:37;28.90;;;12.40;;
71095;SDS011;58753;49.440;11.126;2022-11-20T03:20:03;29.53;;;11.83;;
71095;SDS011;58753;49.440;11.126;2022-11-20T03:22:29;29.70;;;12.70;;
71095;SDS011;58753;49.440;11.126;2022-11-20T03:24:55;29.63;;;12.52;;
71095;SDS011;58753;49.440;11.126;2022-11-20T03:27:20;30.63;;;12.50;;
71095;SDS011;58753;49.440;11.126;2022-11-20T03:29:45;35.33;;;12.40;;
71095;SDS011;58753;49.440;11.126;2022-11-20T03:32:11;29.00;;;11.43;;
71095;SDS011;58753;49.440;11.126;2022-11-20T03:34:36;28.57;;;11.53;;
71095;SDS011;58753;49.440;11.126;2022-11-20T03:37:02;28.45;;;10.63;;
71095;SDS011;58753;49.440;11.126;2022-11-20T03:39:27;30.10;;;11.23;;
71095;SDS011;58753;49.440;11.126;2022-11-20T03:41:52;33.07;;;12.87;;
71095;SDS011;58753;49.440;11.126;2022-11-20T03:44:18;29.20;;;11.07;;
71095;SDS011;58753;49.440;11.126;2022-11-20T03:46:46;25.88;;;11.57;;
71095;SDS011;58753;49.440;11.126;2022-11-20T03:49:11;25.10;;;10.43;;
71095;SDS011;58753;49.440;11.126;2022-11-20T03:51:37;27.53;;;10.73;;
71095;SDS011;58753;49.440;11.126;2022-11-20T03:54:04;27.45;;;11.15;;
71095;SDS011;58753;49.440;11.126;2022-11-20T03:56:32;27.80;;;11.43;;
71095;SDS011;58753;49.440;11.126;2022-11-20T03:59:00;26.95;;;12.15;;
71095;SDS011;58753;49.440;11.126;2022-11-20T04:01:26;29.03;;;13.43;;
71095;SDS011;58753;49.440;11.126;2022-11-20T04:03:53;29.83;;;12.68;;
71095;SDS011;58753;49.440;11.126;2022-11-20T04:06:21;34.28;;;12.38;;
71095;SDS011;58753;49.440;11.126;2022-11-20T04:08:51;29.02;;;11.15;;
71095;SDS011;58753;49.440;11.126;2022-11-20T04:11:28;31.95;;;12.95;;
71095;SDS011;58753;49.440;11.126;2022-11-20T04:13:56;31.03;;;10.80;;
71095;SDS011;58753;49.440;11.126;2022-11-20T04:16:23;31.48;;;13.10;;
71095;SDS011;58753;49.440;11.126;2022-11-20T04:18:53;29.17;;;10.95;;
71095;SDS011;58753;49.440;11.126;2022-11-20T04:21:20;27.63;;;11.43;;
71095;SDS011;58753;49.440;11.126;2022-11-20T04:23:46;29.10;;;12.00;;
71095;SDS011;58753;49.440;11.126;2022-11-20T04:26:11;35.53;;;11.50;;
71095;SDS011;58753;49.440;11.126;2022-11-20T04:28:37;34.47;;;11.77;;
71095;SDS011;58753;49.440;11.126;2022-11-20T04:31:10;29.60;;;10.65;;
71095;SDS011;58753;49.440;11.126;2022-11-20T04:33:39;28.95;;;10.52;;
71095;SDS011;58753;49.440;11.126;2022-11-20T04:36:06;31.23;;;12.00;;
71095;SDS011;58753;49.440;11.126;2022-11-20T04:38:35;30.05;;;11.18;;
71095;SDS011;58753;49.440;11.126;2022-11-20T04:41:01;30.20;;;11.37;;
71095;SDS011;58753;49.440;11.126;2022-11-20T04:43:28;29.85;;;11.25;;
71095;SDS011;58753;49.440;11.126;2022-11-20T04:45:55;30.45;;;11.18;;
71095;SDS011;58753;49.440;11.126;2022-11-20T04:48:21;29.95;;;10.90;;
71095;SDS011;58753;49.440;11.126;2022-11-20T04:50:47;32.05;;;11.65;;
71095;SDS011;58753;49.440;11.126;2022-11-20T04:53:13;31.53;;;11.00;;
71095;SDS011;58753;49.440;11.126;2022-11-20T04:55:38;31.45;;;11.07;;
71095;SDS011;58753;49.440;11.126;2022-11-20T04:58:04;28.40;;;11.37;;
71095;SDS011;58753;49.440;11.126;2022-11-20T05:00:29;34.20;;;12.13;;
71095;SDS011;58753;49.440;11.126;2022-11-20T05:02:55;29.83;;;10.73;;
71095;SDS011;58753;49.440;11.126;2022-11-20T05:05:20;28.40;;;10.73;;
71095;SDS011;58753;49.440;11.126;2022-11-20T05:07:45;29.93;;;11.93;;
71095;SDS011;58753;49.440;11.126;2022-11-20T05:10:11;29.47;;;11.10;;
71095;SDS011;58753;49.440;11.126;2022-11-20T05:12:36;31.30;;;10.07;;
71095;SDS011;58753;49.440;11.126;2022-11-20T05:15:01;27.57;;;9.70;;
71095;SDS011;58753;49.440;11.126;2022-11-20T05:17:27;30.88;;;10.27;;
71095;SDS011;58753;49.440;11.126;2022-11-20T05:19:52;30.50;;;10.53;;
71095;SDS011;58753;49.440;11.126;2022-11-20T05:22:18;31.67;;;11.53;;
71095;SDS011;58753;49.440;11.126;2022-11-20T05:24:43;34.10;;;11.77;;
71095;SDS011;58753;49.440;11.126;2022-11-20T05:27:08;30.47;;;11.47;;
71095;SDS011;58753;49.440;11.126;2022-11-20T05:29:34;29.92;;;11.55;;
71095;SDS011;58753;49.440;11.126;2022-11-20T05:31:59;28.53;;;9.50;;
71095;SDS011;58753;49.440;11.126;2022-11-20T05:34:24;28.03;;;11.07;;
71095;SDS011;58753;49.440;11.126;2022-11-20T05:36:50;31.93;;;11.10;;
71095;SDS011;58753;49.440;11.126;2022-11-20T05:39:15;29.13;;;10.33;;
71095;SDS011;58753;49.440;11.126;2022-11-20T05:41:40;38.47;;;11.93;;
71095;SDS011;58753;49.440;11.126;2022-11-20T05:44:06;30.53;;;10.13;;
71095;SDS011;58753;49.440;11.126;2022-11-20T05:46:31;34.10;;;11.37;;
71095;SDS011;58753;49.440;11.126;2022-11-20T05:48:57;35.27;;;11.20;;
71095;SDS011;58753;49.440;11.126;2022-11-20T05:51:23;28.83;;;10.57;;
71095;SDS011;58753;49.440;11.126;2022-11-20T05:53:49;34.08;;;10.40;;
71095;SDS011;58753;49.440;11.126;2022-11-20T05:56:16;29.63;;;10.70;;
71095;SDS011;58753;49.440;11.126;2022-11-20T05:58:43;33.38;;;11.57;;
71095;SDS011;58753;49.440;11.126;2022-11-20T06:01:10;27.63;;;10.02;;
71095;SDS011;58753;49.440;11.126;2022-11-20T06:03:38;26.13;;;10.10;;
71095;SDS011;58753;49.440;11.126;2022-11-20T06:06:05;30.05;;;10.82;;
71095;SDS011;58753;49.440;11.126;2022-11-20T06:08:31;28.40;;;10.07;;
71095;SDS011;58753;49.440;11.126;2022-11-20T06:10:56;29.80;;;9.25;;
71095;SDS011;58753;49.440;11.126;2022-11-20T06:13:22;27.30;;;9.63;;
71095;SDS011;58753;49.440;11.126;2022-11-20T06:15:48;23.47;;;9.07;;
71095;SDS011;58753;49.440;11.126;2022-11-20T06:18:14;23.48;;;9.27;;
71095;SDS011;58753;49.440;11.126;2022-11-20T06:20:40;30.83;;;10.20;;
71095;SDS011;58753;49.440;11.126;2022-11-20T06:23:05;23.03;;;9.73;;
71095;SDS011;58753;49.440;11.126;2022-11-20T06:25:30;26.53;;;10.27;;
71095;SDS011;58753;49.440;11.126;2022-11-20T06:27:56;27.37;;;10.70;;
71095;SDS011;58753;49.440;11.126;2022-11-20T06:30:21;25.93;;;9.00;;
71095;SDS011;58753;49.440;11.126;2022-11-20T06:32:46;26.20;;;10.13;;
71095;SDS011;58753;49.440;11.126;2022-11-20T06:35:12;25.00;;;8.63;;
71095;SDS011;58753;49.440;11.126;2022-11-20T06:37:37;22.83;;;8.48;;
71095;SDS011;58753;49.440;11.126;2022-11-20T06:40:03;25.37;;;9.60;;
71095;SDS011;58753;49.440;11.126;2022-11-20T06:42:29;24.88;;;8.68;;
71095;SDS011;58753;49.440;11.126;2022-11-20T06:44:54;29.07;;;9.67;;
71095;SDS011;58753;49.440;11.126;2022-11-20T06:47:19;30.00;;;9.67;;
71095;SDS011;58753;49.440;11.126;2022-11-20T06:49:45;27.10;;;9.70;;
71095;SDS011;58753;49.440;11.126;2022-11-20T06:52:10;26.77;;;9.70;;
71095;SDS011;58753;49.440;11.126;2022-11-20T06:54:35;22.53;;;8.73;;
71095;SDS011;58753;49.440;11.126;2022-11-20T06:57:01;21.90;;;9.07;;
71095;SDS011;58753;49.440;11.126;2022-11-20T06:59:26;26.65;;;8.85;;
71095;SDS011;58753;49.440;11.126;2022-11-20T07:01:51;20.87;;;7.90;;
71095;SDS011;58753;49.440;11.126;2022-11-20T07:04:17;23.57;;;9.10;;
71095;SDS011;58753;49.440;11.126;2022-11-20T07:06:42;22.80;;;8.53;;
71095;SDS011;58753;49.440;11.126;2022-11-20T07:09:08;22.33;;;9.00;;
71095;SDS011;58753;49.440;11.126;2022-11-20T07:11:34;28.73;;;9.73;;
71095;SDS011;58753;49.440;11.126;2022-11-20T07:13:59;29.63;;;9.55;;
71095;SDS011;58753;49.440;11.126;2022-11-20T07:16:25;24.07;;;8.57;;
71095;SDS011;58753;49.440;11.126;2022-11-20T07:18:50;19.80;;;8.23;;
71095;SDS011;58753;49.440;11.126;2022-11-20T07:21:15;21.47;;;7.97;;
71095;SDS011;58753;49.440;11.126;2022-11-20T07:23:41;25.13;;;8.80;;
71095;SDS011;58753;49.440;11.126;2022-11-20T07:26:07;23.75;;;9.52;;
71095;SDS011;58753;49.440;11.126;2022-11-20T07:28:34;25.23;;;8.63;;
71095;SDS011;58753;49.440;11.126;2022-11-20T07:31:00;31.73;;;10.55;;
71095;SDS011;58753;49.440;11.126;2022-11-20T07:33:25;23.67;;;8.73;;
71095;SDS011;58753;49.440;11.126;2022-11-20T07:35:51;23.10;;;9.25;;
71095;SDS011;58753;49.440;11.126;2022-11-20T07:38:16;24.87;;;8.73;;
71095;SDS011;58753;49.440;11.126;2022-11-20T07:40:41;20.50;;;8.10;;
71095;SDS011;58753;49.440;11.126;2022-11-20T07:43:07;21.27;;;7.87;;
71095;SDS011;58753;49.440;11.126;2022-11-20T07:45:32;19.58;;;8.32;;
71095;SDS011;58753;49.440;11.126;2022-11-20T07:47:58;25.10;;;8.63;;
71095;SDS011;58753;49.440;11.126;2022-11-20T07:50:23;22.27;;;7.40;;
71095;SDS011;58753;49.440;11.126;2022-11-20T07:52:48;26.60;;;9.83;;
71095;SDS011;58753;49.440;11.126;2022-11-20T07:55:14;21.53;;;8.73;;
71095;SDS011;58753;49.440;11.126;2022-11-20T07:57:40;22.65;;;9.15;;
71095;SDS011;58753;49.440;11.126;2022-11-20T08:00:06;26.88;;;10.95;;
71095;SDS011;58753;49.440;11.126;2022-11-20T08:02:37;26.80;;;10.53;;
71095;SDS011;58753;49.440;11.126;2022-11-20T08:05:06;24.33;;;10.98;;
71095;SDS011;58753;49.440;11.126;2022-11-20T08:07:39;21.42;;;9.40;;
71095;SDS011;58753;49.440;11.126;2022-11-20T08:10:07;19.80;;;8.15;;
71095;SDS011;58753;49.440;11.126;2022-11-20T08:12:34;22.65;;;9.20;;
71095;SDS011;58753;49.440;11.126;2022-11-20T08:15:18;19.97;;;8.27;;
71095;SDS011;58753;49.440;11.126;2022-11-20T08:17:43;23.47;;;11.47;;
71095;SDS011;58753;49.440;11.126;2022-11-20T08:20:09;21.50;;;9.80;;
71095;SDS011;58753;49.440;11.126;2022-11-20T08:22:34;24.03;;;10.03;;
71095;SDS011;58753;49.440;11.126;2022-11-20T08:25:00;20.23;;;8.10;;
71095;SDS011;58753;49.440;11.126;2022-11-20T08:27:25;17.17;;;7.60;;
71095;SDS011;58753;49.440;11.126;2022-11-20T08:29:51;24.97;;;10.90;;
71095;SDS011;58753;49.440;11.126;2022-11-20T08:32:16;23.07;;;11.17;;
71095;SDS011;58753;49.440;11.126;2022-11-20T08:34:42;20.65;;;8.45;;
71095;SDS011;58753;49.440;11.126;2022-11-20T08:37:07;22.40;;;9.20;;
71095;SDS011;58753;49.440;11.126;2022-11-20T08:39:33;19.70;;;9.17;;
71095;SDS011;58753;49.440;11.126;2022-11-20T08:41:58;29.57;;;13.80;;
71095;SDS011;58753;49.440;11.126;2022-11-20T08:44:23;26.75;;;11.82;;
71095;SDS011;58753;49.440;11.126;2022-11-20T08:46:49;26.17;;;10.07;;
71095;SDS011;58753;49.440;11.126;2022-11-20T08:49:14;22.73;;;8.77;;
71095;SDS011;58753;49.440;11.126;2022-11-20T08:51:40;22.13;;;9.65;;
71095;SDS011;58753;49.440;11.126;2022-11-20T08:54:06;21.13;;;9.43;;
71095;SDS011;58753;49.440;11.126;2022-11-20T08:56:35;25.95;;;14.65;;
71095;SDS011;58753;49.440;11.126;2022-11-20T08:59:01;22.67;;;11.10;;
71095;SDS011;58753;49.440;11.126;2022-11-20T09:01:26;21.57;;;9.87;;
71095;SDS011;58753;49.440;11.126;2022-11-20T09:03:54;20.25;;;10.02;;
71095;SDS011;58753;49.440;11.126;2022-11-20T09:06:20;21.00;;;10.00;;
71095;SDS011;58753;49.440;11.126;2022-11-20T09:08:46;20.70;;;9.40;;
71095;SDS011;58753;49.440;11.126;2022-11-20T09:11:11;19.10;;;8.73;;
71095;SDS011;58753;49.440;11.126;2022-11-20T09:13:37;16.77;;;7.97;;
71095;SDS011;58753;49.440;11.126;2022-11-20T09:16:03;20.95;;;8.43;;
71095;SDS011;58753;49.440;11.126;2022-11-20T09:18:31;19.33;;;7.13;;
71095;SDS011;58753;49.440;11.126;2022-11-20T09:21:00;22.70;;;9.23;;
71095;SDS011;58753;49.440;11.126;2022-11-20T09:23:30;16.88;;;7.68;;
71095;SDS011;58753;49.440;11.126;2022-11-20T09:25:57;16.15;;;7.43;;
71095;SDS011;58753;49.440;11.126;2022-11-20T09:28:25;19.83;;;9.70;;
71095;SDS011;58753;49.440;11.126;2022-11-20T09:30:50;24.57;;;12.77;;
71095;SDS011;58753;49.440;11.126;2022-11-20T09:33:16;27.83;;;13.48;;
71095;SDS011;58753;49.440;11.126;2022-11-20T09:35:42;20.80;;;10.70;;
71095;SDS011;58753;49.440;11.126;2022-11-20T09:38:08;17.58;;;7.40;;
71095;SDS011;58753;49.440;11.126;2022-11-20T09:40:36;14.77;;;7.50;;
71095;SDS011;58753;49.440;11.126;2022-11-20T09:46:03;20.40;;;8.15;;
71095;SDS011;58753;49.440;11.126;2022-11-20T09:49:00;19.00;;;7.67;;
71095;SDS011;58753;49.440;11.126;2022-11-20T09:54:20;25.08;;;13.80;;
71095;SDS011;58753;49.440;11.126;2022-11-20T09:56:49;26.45;;;13.68;;
71095;SDS011;58753;49.440;11.126;2022-11-20T09:59:31;23.40;;;11.80;;
71095;SDS011;58753;49.440;11.126;2022-11-20T10:02:01;20.30;;;9.23;;
71095;SDS011;58753;49.440;11.126;2022-11-20T10:04:31;21.38;;;10.30;;
71095;SDS011;58753;49.440;11.126;2022-11-20T10:07:03;39.10;;;17.90;;
71095;SDS011;58753;49.440;11.126;2022-11-20T10:09:32;26.17;;;15.10;;
71095;SDS011;58753;49.440;11.126;2022-11-20T10:18:04;27.33;;;12.93;;
71095;SDS011;58753;49.440;11.126;2022-11-20T10:23:47;24.25;;;11.05;;
71095;SDS011;58753;49.440;11.126;2022-11-20T10:26:51;18.10;;;8.32;;
71095;SDS011;58753;49.440;11.126;2022-11-20T10:29:34;16.50;;;7.60;;
71095;SDS011;58753;49.440;11.126;2022-11-20T10:32:23;19.15;;;7.90;;
71095;SDS011;58753;49.440;11.126;2022-11-20T10:38:00;19.85;;;6.88;;
71095;SDS011;58753;49.440;11.126;2022-11-20T10:40:46;19.00;;;8.30;;
71095;SDS011;58753;49.440;11.126;2022-11-20T10:43:21;17.03;;;10.33;;
71095;SDS011;58753;49.440;11.126;2022-11-20T10:46:00;23.23;;;10.25;;
71095;SDS011;58753;49.440;11.126;2022-11-20T10:48:30;18.75;;;8.57;;
71095;SDS011;58753;49.440;11.126;2022-11-20T10:56:49;22.43;;;11.43;;
71095;SDS011;58753;49.440;11.126;2022-11-20T11:02:00;18.85;;;8.00;;
71095;SDS011;58753;49.440;11.126;2022-11-20T11:07:06;16.05;;;7.13;;
71095;SDS011;58753;49.440;11.126;2022-11-20T11:09:38;16.65;;;7.38;;
71095;SDS011;58753;49.440;11.126;2022-11-20T11:12:08;17.15;;;7.88;;
71095;SDS011;58753;49.440;11.126;2022-11-20T11:14:44;23.40;;;11.05;;
71095;SDS011;58753;49.440;11.126;2022-11-20T11:22:31;27.45;;;13.73;;
71095;SDS011;58753;49.440;11.126;2022-11-20T11:24:58;30.25;;;14.07;;
71095;SDS011;58753;49.440;11.126;2022-11-20T11:27:24;25.55;;;15.80;;
71095;SDS011;58753;49.440;11.126;2022-11-20T11:29:49;31.77;;;15.10;;
71095;SDS011;58753;49.440;11.126;2022-11-20T11:32:17;23.07;;;15.53;;
71095;SDS011;58753;49.440;11.126;2022-11-20T11:34:57;20.75;;;10.18;;
71095;SDS011;58753;49.440;11.126;2022-11-20T11:37:32;7.13;;;3.05;;
71095;SDS011;58753;49.440;11.126;2022-11-20T11:40:00;15.80;;;8.02;;
71095;SDS011;58753;49.440;11.126;2022-11-20T11:42:25;21.63;;;10.40;;
71095;SDS011;58753;49.440;11.126;2022-11-20T11:44:53;21.60;;;10.30;;
71095;SDS011;58753;49.440;11.126;2022-11-20T11:52:35;21.23;;;10.77;;
71095;SDS011;58753;49.440;11.126;2022-11-20T11:55:14;22.57;;;10.53;;
71095;SDS011;58753;49.440;11.126;2022-11-20T11:57:49;23.55;;;11.25;;
71095;SDS011;58753;49.440;11.126;2022-11-20T12:00:20;22.13;;;12.23;;
71095;SDS011;58753;49.440;11.126;2022-11-20T12:07:47;18.87;;;9.40;;
71095;SDS011;58753;49.440;11.126;2022-11-20T12:12:54;19.60;;;8.50;;
71095;SDS011;58753;49.440;11.126;2022-11-20T12:15:26;20.58;;;9.88;;
71095;SDS011;58753;49.440;11.126;2022-11-20T12:17:55;22.27;;;10.48;;
71095;SDS011;58753;49.440;11.126;2022-11-20T12:20:22;21.57;;;10.03;;
71095;SDS011;58753;49.440;11.126;2022-11-20T12:23:00;19.85;;;10.98;;
71095;SDS011;58753;49.440;11.126;2022-11-20T12:25:31;22.38;;;12.32;;
71095;SDS011;58753;49.440;11.126;2022-11-20T12:28:03;18.73;;;9.90;;
71095;SDS011;58753;49.440;11.126;2022-11-20T12:36:40;13.02;;;6.65;;
71095;SDS011;58753;49.440;11.126;2022-11-20T12:50:23;12.90;;;6.60;;
71095;SDS011;58753;49.440;11.126;2022-11-20T12:53:08;9.88;;;5.05;;
71095;SDS011;58753;49.440;11.126;2022-11-20T12:55:47;9.80;;;5.50;;
71095;SDS011;58753;49.440;11.126;2022-11-20T13:01:19;14.20;;;7.75;;
71095;SDS011;58753;49.440;11.126;2022-11-20T13:06:48;11.02;;;5.70;;
71095;SDS011;58753;49.440;11.126;2022-11-20T13:09:15;14.90;;;6.70;;
71095;SDS011;58753;49.440;11.126;2022-11-20T13:11:52;12.27;;;5.13;;
71095;SDS011;58753;49.440;11.126;2022-11-20T13:17:18;13.13;;;6.28;;
71095;SDS011;58753;49.440;11.126;2022-11-20T13:19:54;13.55;;;6.32;;
71095;SDS011;58753;49.440;11.126;2022-11-20T13:22:24;13.37;;;6.80;;
71095;SDS011;58753;49.440;11.126;2022-11-20T13:25:21;13.20;;;6.50;;
71095;SDS011;58753;49.440;11.126;2022-11-20T13:30:35;18.85;;;7.25;;
71095;SDS011;58753;49.440;11.126;2022-11-20T13:33:32;27.42;;;11.13;;
71095;SDS011;58753;49.440;11.126;2022-11-20T13:36:04;14.37;;;8.00;;
71095;SDS011;58753;49.440;11.126;2022-11-20T13:38:44;18.00;;;8.18;;
71095;SDS011;58753;49.440;11.126;2022-11-20T13:41:22;19.02;;;9.13;;
71095;SDS011;58753;49.440;11.126;2022-11-20T13:43:52;21.50;;;10.80;;
71095;SDS011;58753;49.440;11.126;2022-11-20T13:46:22;14.88;;;7.53;;
71095;SDS011;58753;49.440;11.126;2022-11-20T13:48:49;14.27;;;6.27;;
71095;SDS011;58753;49.440;11.126;2022-11-20T14:02:27;17.70;;;9.20;;
71095;SDS011;58753;49.440;11.126;2022-11-20T14:04:56;19.73;;;9.15;;
71095;SDS011;58753;49.440;11.126;2022-11-20T14:07:25;17.08;;;8.85;;
71095;SDS011;58753;49.440;11.126;2022-11-20T14:10:03;17.17;;;8.27;;
71095;SDS011;58753;49.440;11.126;2022-11-20T14:12:30;20.77;;;10.23;;
71095;SDS011;58753;49.440;11.126;2022-11-20T14:14:56;19.35;;;9.32;;
71095;SDS011;58753;49.440;11.126;2022-11-20T14:19:59;16.83;;;8.75;;
71095;SDS011;58753;49.440;11.126;2022-11-20T14:22:51;16.20;;;8.77;;
71095;SDS011;58753;49.440;11.126;2022-11-20T14:28:01;17.52;;;8.10;;
71095;SDS011;58753;49.440;11.126;2022-11-20T14:30:39;17.50;;;9.43;;
71095;SDS011;58753;49.440;11.126;2022-11-20T14:33:09;21.23;;;9.20;;
71095;SDS011;58753;49.440;11.126;2022-11-20T14:35:39;22.42;;;9.68;;
71095;SDS011;58753;49.440;11.126;2022-11-20T14:38:10;21.37;;;9.87;;
71095;SDS011;58753;49.440;11.126;2022-11-20T14:40:38;22.83;;;10.63;;
71095;SDS011;58753;49.440;11.126;2022-11-20T14:43:26;20.45;;;10.27;;
71095;SDS011;58753;49.440;11.126;2022-11-20T14:46:11;23.80;;;11.70;;
71095;SDS011;58753;49.440;11.126;2022-11-20T14:48:41;18.65;;;8.65;;
71095;SDS011;58753;49.440;11.126;2022-11-20T14:51:11;20.23;;;8.27;;
71095;SDS011;58753;49.440;11.126;2022-11-20T14:53:48;20.25;;;7.63;;
71095;SDS011;58753;49.440;11.126;2022-11-20T14:56:13;16.60;;;7.63;;
71095;SDS011;58753;49.440;11.126;2022-11-20T14:58:58;15.35;;;7.80;;
71095;SDS011;58753;49.440;11.126;2022-11-20T15:01:30;16.98;;;7.70;;
71095;SDS011;58753;49.440;11.126;2022-11-20T15:03:59;17.30;;;8.10;;
71095;SDS011;58753;49.440;11.126;2022-11-20T15:06:25;23.05;;;10.10;;
71095;SDS011;58753;49.440;11.126;2022-11-20T15:08:52;19.20;;;9.47;;
71095;SDS011;58753;49.440;11.126;2022-11-20T15:11:18;23.13;;;10.10;;
71095;SDS011;58753;49.440;11.126;2022-11-20T15:13:48;21.42;;;11.02;;
71095;SDS011;58753;49.440;11.126;2022-11-20T15:16:20;27.90;;;13.03;;
71095;SDS011;58753;49.440;11.126;2022-11-20T15:18:47;24.40;;;11.82;;
71095;SDS011;58753;49.440;11.126;2022-11-20T15:21:14;16.67;;;9.53;;
71095;SDS011;58753;49.440;11.126;2022-11-20T15:23:40;19.38;;;9.05;;
71095;SDS011;58753;49.440;11.126;2022-11-20T15:26:07;18.83;;;8.52;;
71095;SDS011;58753;49.440;11.126;2022-11-20T15:28:35;15.02;;;8.52;;
71095;SDS011;58753;49.440;11.126;2022-11-20T15:31:04;20.37;;;9.37;;
71095;SDS011;58753;49.440;11.126;2022-11-20T15:33:30;16.73;;;9.30;;
71095;SDS011;58753;49.440;11.126;2022-11-20T15:35:56;24.17;;;12.18;;
71095;SDS011;58753;49.440;11.126;2022-11-20T15:38:22;31.13;;;15.13;;
71095;SDS011;58753;49.440;11.126;2022-11-20T15:40:47;27.70;;;15.40;;
71095;SDS011;58753;49.440;11.126;2022-11-20T15:43:12;24.10;;;14.60;;
71095;SDS011;58753;49.440;11.126;2022-11-20T15:45:42;22.37;;;12.20;;
71095;SDS011;58753;49.440;11.126;2022-11-20T15:53:50;22.13;;;11.70;;
71095;SDS011;58753;49.440;11.126;2022-11-20T15:56:15;24.37;;;12.93;;
71095;SDS011;58753;49.440;11.126;2022-11-20T15:58:41;22.63;;;13.73;;